Flight Track Log - Related Links

Times and Time Zones

All times are in EDT time to prevent confusion due to time zone crossing. See the AAL963 flight status page for this flight to view local times or setup timezone preferences in your user account.


Time Position Orientation Groundspeed Altitude Reporting Facility
EDT Latitude Longitude Course Direction KTS MPH feet Rate Location/Type
Mon 09:06:55 PM 32.8640 -97.0510 185° South 197 227 1,700  Level FlightAware ADS-B
Mon 09:07:07 PM 32.8530 -97.0530 189° South 198 228 2,100 1,167 Climbing FlightAware ADS-B
Mon 09:07:31 PM 32.8300 -97.0590 192° South 226 260 2,400 545 Climbing FlightAware ADS-B
Mon 09:07:51 PM 32.8080 -97.0640 191° South 254 292 2,500 800 Climbing FlightAware ADS-B
Mon 09:08:01 PM 32.7960 -97.0670 192° South 258 297 2,800 1,833 Climbing FlightAware ADS-B
Mon 09:08:27 PM 32.7640 -97.0750 192° South 269 310 3,600 1,957 Climbing FlightAware ADS-B
Mon 09:08:47 PM 32.7400 -97.0810 192° South 274 315 4,300 2,100 Climbing FlightAware ADS-B
Mon 09:09:07 PM 32.7150 -97.0860 190° South 276 318 5,000 2,250 Climbing FlightAware ADS-B
Mon 09:09:27 PM 32.6900 -97.0920 191° South 276 318 5,800 2,192 Climbing FlightAware ADS-B
Mon 09:09:59 PM 32.6490 -97.0880 175° South 286 329 6,900 2,100 Climbing FlightAware ADS-B
Mon 09:10:07 PM 32.6390 -97.0820 153° Southeast 287 330 7,200 2,250 Climbing FlightAware ADS-B
Mon 09:10:31 PM 32.6130 -97.0610 146° Southeast 286 329 8,100 2,000 Climbing FlightAware ADS-B
Mon 09:10:52 PM 32.5900 -97.0420 145° Southeast 294 338 8,700 1,800 Climbing FlightAware ADS-B
Mon 09:11:11 PM 32.5670 -97.0240 147° Southeast 299 344 9,300 1,964 Climbing FlightAware ADS-B
Mon 09:11:47 PM 32.5240 -96.9920 148° Southeast 307 353 10,500 1,541 Climbing FlightAware ADS-B
Mon 09:12:25 PM 32.4750 -96.9560 148° Southeast 339 390 11,200 1,200 Climbing FlightAware ADS-B
Mon 09:12:57 PM 32.4330 -96.9250 148° Southeast 359 413 11,900 1,164 Climbing FlightAware ADS-B
Mon 09:13:32 PM 32.3820 -96.8870 148° Southeast 388 447 12,500 1,433 Climbing FlightAware ADS-B
Mon 09:14:04 PM 32.3320 -96.8500 148° Southeast 401 461 13,500 2,029 Climbing FlightAware ADS-B
Mon 09:14:40 PM 32.2710 -96.8120 152° Southeast 407 468 14,800 2,057 Climbing FlightAware ADS-B
Mon 09:15:14 PM 32.2150 -96.7880 160° South 414 476 15,900 2,000 Climbing FlightAware ADS-B
Mon 09:15:43 PM 32.1560 -96.7664 163° South 419 482 16,900 1,932 Climbing FlightAware ADS-B
Mon 09:16:13 PM 32.0992 -96.7451 162° South 429 494 17,800 1,905 Climbing FlightAware ADS-B
Mon 09:16:46 PM 32.0365 -96.7213 162° South 434 499 18,900 1,853 Climbing FlightAware ADS-B
Mon 09:17:21 PM 31.9681 -96.6953 162° South 441 507 19,900 1,662 Climbing FlightAware ADS-B
Mon 09:17:51 PM 31.9091 -96.6728 162° South 448 516 20,700 1,574 Climbing FlightAware ADS-B
Mon 09:18:22 PM 31.8489 -96.6495 162° South 454 522 21,500 1,714 Climbing FlightAware ADS-B
Mon 09:18:54 PM 31.7844 -96.6226 160° South 458 527 22,500 1,456 Climbing FlightAware ADS-B
Mon 09:23:27 PM 31.2095 -96.3974 161° South 497 572 28,900 1,370 Climbing FlightAware ADS-B
Mon 09:23:43 PM 31.1775 -96.3771 152° Southeast 499 574 29,100 923 Climbing FlightAware ADS-B
Mon 09:23:53 PM 31.1587 -96.3606 143° Southeast 501 577 29,300 1,043 Climbing FlightAware ADS-B
Mon 09:24:06 PM 31.1374 -96.3361 135° Southeast 503 579 29,500 919 Climbing FlightAware ADS-B
Mon 09:25:44 PM 31.0040 -96.1200 125° Southeast 505 581 31,000 476 Climbing FlightAware ADS-B
Mon 09:27:15 PM 30.8785 -95.9168 126° Southeast 508 585 31,000  Level FlightAware ADS-B
Mon 09:27:45 PM 30.8374 -95.8503 126° Southeast 508 585 31,000  Level FlightAware ADS-B
Mon 09:28:16 PM 30.7953 -95.7827 126° Southeast 507 583 31,000  Level FlightAware ADS-B
Mon 09:29:18 PM 30.7095 -95.6451 126° Southeast 507 583 31,000  Level FlightAware ADS-B
Mon 09:31:51 PM 30.5005 -95.3112 126° Southeast 500 575 31,000  Level FlightAware ADS-B
Mon 09:32:21 PM 30.4590 -95.2453 126° Southeast 499 574 31,000  Level FlightAware ADS-B
Mon 09:33:53 PM 30.3351 -95.0492 126° Southeast 497 572 31,000  Level FlightAware ADS-B
Mon 09:35:54 PM 30.1704 -94.7899 126° Southeast 495 570 31,000  Level FlightAware ADS-B
Mon 09:36:24 PM 30.1291 -94.7251 126° Southeast 497 572 31,000  Level FlightAware ADS-B
Mon 09:37:25 PM 30.0457 -94.5946 126° Southeast 501 577 31,000  Level FlightAware ADS-B
Mon 09:39:26 PM 29.8782 -94.3339 127° Southeast 500 575 31,000  Level FlightAware ADS-B
Mon 09:39:57 PM 29.8365 -94.2693 127° Southeast 498 573 31,000  Level FlightAware ADS-B
Mon 09:40:59 PM 29.7516 -94.1380 127° Southeast 497 572 31,000  Level FlightAware ADS-B
Mon 09:41:24 PM 29.7162 -94.0835 127° Southeast 495 570 31,000  Level FlightAware ADS-B
Mon 09:41:53 PM 29.6714 -94.0279 134° Southeast 494 568 31,000  Level FlightAware ADS-B
Mon 09:42:35 PM 29.5969 -93.9608 143° Southeast 493 567 31,000  Level FlightAware ADS-B
Mon 09:43:05 PM 29.5414 -93.9134 143° Southeast 494 568 31,000  Level FlightAware ADS-B
Mon 09:43:35 PM 29.4858 -93.8661 143° Southeast 496 571 31,000  Level FlightAware ADS-B
Mon 09:44:05 PM 29.4302 -93.8188 143° Southeast 497 572 31,000  Level FlightAware ADS-B
Mon 09:44:36 PM 29.3737 -93.7706 143° Southeast 495 570 31,000  Level FlightAware ADS-B
Mon 09:45:13 PM 29.3051 -93.7123 143° Southeast 494 568 31,000  Level FlightAware ADS-B
Mon 09:46:03 PM 29.2129 -93.6340 143° Southeast 494 568 31,000  Level FlightAware ADS-B
Mon 09:46:39 PM 29.1468 -93.5780 143° Southeast 494 568 31,000  Level FlightAware ADS-B
Mon 09:47:59 PM 29.0261 -93.4753 143° Southeast 493 567 31,000 -43 Level Houston Center
Mon 09:49:00 PM 28.8953 -93.3642 143° Southeast 491 565 30,900  Descending Houston Center
Mon 09:50:01 PM 28.7850 -93.2728 144° Southeast 490 564 31,000  Climbing Houston Center
Mon 09:51:02 PM 28.6761 -93.1803 143° Southeast 488 562 30,900  Descending Houston Center
Mon 09:52:03 PM 28.5661 -93.0894 144° Southeast 489 563 31,000 49 Climbing Houston Center
Mon 09:53:04 PM 28.4575 -92.9975 143° Southeast 488 562 31,000 -49 Level Houston Center
Mon 09:54:05 PM 28.3461 -92.9047 144° Southeast 494 568 30,900  Descending Houston Center
Mon 09:55:06 PM 28.2347 -92.8139 144° Southeast 494 568 31,000 393 Climbing Houston Center
Mon 09:56:07 PM 28.1247 -92.7211 143° Southeast 494 568 31,700 934 Climbing Houston Center
Mon 09:57:08 PM 28.0147 -92.6317 144° Southeast 490 564 32,900 590 Climbing Houston Center
Mon 09:58:09 PM 27.9047 -92.5433 145° Southeast 487 560 32,900  Level Houston Center
Mon 09:59:10 PM 27.7964 -92.4536 144° Southeast 485 558 32,900 49 Level Houston Center
Mon 10:00:11 PM 27.6653 -92.3444 144° Southeast 486 559 33,000  Climbing Houston Center
Mon 10:01:12 PM 27.5558 -92.2592 145° Southeast 484 557 32,900  Descending Houston Center
Mon 10:02:12 PM 27.4464 -92.1689 144° Southeast 486 559 33,000 50 Climbing Houston Center
Mon 10:03:13 PM 27.3367 -92.0806 144° Southeast 485 558 33,000  Level Houston Center
Mon 10:04:14 PM 27.2275 -91.9939 145° Southeast 482 555 33,000 -49 Level Houston Center
Mon 10:05:15 PM 27.1189 -91.9042 144° Southeast 483 556 32,900  Descending Houston Center
Mon 10:06:16 PM 27.0086 -91.8150 144° Southeast 485 558 33,000 Climbing Houston Center
Mon 10:08:00 PM 26.8227 -91.6652 144° Southeast  Level FlightAware Approximate
Mon 10:15:00 PM 26.0710 -91.0639 145° Southeast  Level FlightAware Approximate
Mon 10:16:00 PM 25.9629 -90.9792 145° Southeast  Level FlightAware Approximate
Mon 10:17:00 PM 25.8549 -90.8948 145° Southeast  Level FlightAware Approximate
Mon 10:18:00 PM 25.7468 -90.8105 145° Southeast  Level FlightAware Approximate
Mon 10:19:00 PM 25.6386 -90.7263 145° Southeast  Level FlightAware Approximate
Mon 10:20:00 PM 25.5304 -90.6423 145° Southeast  Level FlightAware Approximate
Mon 10:21:00 PM 25.4221 -90.5585 145° Southeast  Level FlightAware Approximate
Mon 10:22:00 PM 25.3139 -90.4748 145° Southeast  Level FlightAware Approximate
Mon 10:23:00 PM 25.2055 -90.3913 145° Southeast  Level FlightAware Approximate
Mon 10:24:00 PM 25.0971 -90.3079 145° Southeast  Level FlightAware Approximate
Mon 10:25:00 PM 24.9887 -90.2246 145° Southeast  Level FlightAware Approximate
Mon 10:26:00 PM 24.8804 -90.1413 145° Southeast  Level FlightAware Approximate
Mon 10:27:00 PM 24.7720 -90.0580 145° Southeast  Level FlightAware Approximate
Mon 10:28:00 PM 24.6636 -89.9750 145° Southeast  Level FlightAware Approximate
Mon 10:29:00 PM 24.5551 -89.8921 145° Southeast  Level FlightAware Approximate
Mon 10:30:00 PM 24.4485 -89.8078 146° Southeast  Level FlightAware Approximate
Mon 10:31:00 PM 24.3391 -89.7277 146° Southeast  Level FlightAware Approximate
Mon 10:32:00 PM 24.2297 -89.6477 146° Southeast  Level FlightAware Approximate
Mon 10:33:00 PM 24.1203 -89.5678 146° Southeast  Level FlightAware Approximate
Mon 10:34:00 PM 24.0117 -89.4868 145° Southeast  Level FlightAware Approximate
Mon 10:35:00 PM 23.9046 -89.4034 145° Southeast  Level FlightAware Approximate
Mon 10:35:14 PM 23.7890 -89.3150 145° Southeast 486 559 33,000  Level FlightAware ADS-B
Mon 10:35:54 PM 23.7220 -89.2640 145° Southeast 487 560 33,000  Level FlightAware ADS-B
Mon 10:36:33 PM 23.6420 -89.2040 146° Southeast 490 564 33,000  Level FlightAware ADS-B
Mon 10:37:06 PM 23.5880 -89.1630 145° Southeast 490 564 33,000  Level FlightAware ADS-B
Mon 10:37:42 PM 23.5310 -89.1200 145° Southeast 490 564 33,000  Level FlightAware ADS-B
Mon 10:38:19 PM 23.4720 -89.0750 145° Southeast 490 564 33,000  Level FlightAware ADS-B
Mon 10:38:55 PM 23.4160 -89.0320 145° Southeast 490 564 33,000  Level FlightAware ADS-B
Mon 10:39:31 PM 23.3590 -88.9890 145° Southeast 490 564 33,000  Level FlightAware ADS-B
Mon 10:40:08 PM 23.3000 -88.9440 145° Southeast 490 564 33,000  Level FlightAware ADS-B
Mon 10:40:42 PM 23.1750 -88.8560 147° Southeast 489 563 33,000  Level FlightAware ADS-B
Mon 10:41:28 PM 23.0970 -88.7970 145° Southeast 489 563 33,000  Level FlightAware ADS-B
Mon 10:42:04 PM 23.0400 -88.7540 145° Southeast 489 563 33,000  Level FlightAware ADS-B
Mon 10:42:35 PM 22.9640 -88.6990 146° Southeast 489 563 33,000  Level FlightAware ADS-B
Mon 10:43:10 PM 22.8960 -88.6490 146° Southeast 492 566 33,000  Level FlightAware ADS-B
Mon 10:43:52 PM 22.8270 -88.5970 145° Southeast 492 566 33,000  Level FlightAware ADS-B
Mon 10:44:28 PM 22.7630 -88.5510 146° Southeast 492 566 33,000  Level FlightAware ADS-B
Mon 10:45:04 PM 22.7120 -88.5130 145° Southeast 491 565 33,000  Level FlightAware ADS-B
Mon 10:45:51 PM 22.6090 -88.4360 145° Southeast 491 565 33,000  Level FlightAware ADS-B
Mon 10:46:27 PM 22.5450 -88.3760 139° Southeast 491 565 33,000  Level FlightAware ADS-B
Mon 10:47:09 PM 22.4790 -88.3080 136° Southeast 491 565 33,000  Level FlightAware ADS-B
Mon 10:47:43 PM 22.4190 -88.2470 137° Southeast 493 567 33,000  Level FlightAware ADS-B
Mon 10:48:22 PM 22.3590 -88.1860 137° Southeast 493 567 33,000  Level FlightAware ADS-B
Mon 10:48:58 PM 22.2930 -88.1200 137° Southeast 495 570 33,000  Level FlightAware ADS-B
Mon 10:49:36 PM 22.2310 -88.0570 137° Southeast 496 571 33,000  Level FlightAware ADS-B
Mon 10:50:07 PM 22.1770 -88.0030 137° Southeast 494 568 33,000  Level FlightAware ADS-B
Mon 10:50:46 PM 22.1170 -87.9420 137° Southeast 495 570 33,000  Level FlightAware ADS-B
Mon 10:51:20 PM 22.0550 -87.8790 137° Southeast 497 572 33,000  Level FlightAware ADS-B
Mon 10:51:57 PM 21.9920 -87.8160 137° Southeast 498 573 33,000  Level FlightAware ADS-B
Mon 10:52:35 PM 21.9310 -87.7550 137° Southeast 499 574 33,000  Level FlightAware ADS-B
Mon 10:53:12 PM 21.8690 -87.6920 137° Southeast 499 574 33,000  Level FlightAware ADS-B
Mon 10:53:54 PM 21.7990 -87.6220 137° Southeast 496 571 33,000  Level FlightAware ADS-B
Mon 10:54:25 PM 21.7430 -87.5670 138° Southeast 493 567 33,000  Level FlightAware ADS-B
Mon 10:55:01 PM 21.6830 -87.5070 137° Southeast 492 566 33,000  Level FlightAware ADS-B
Mon 10:55:34 PM 21.6300 -87.4550 138° Southeast 492 566 33,000  Level FlightAware ADS-B
Mon 10:56:10 PM 21.5670 -87.3930 138° Southeast 492 566 33,000  Level FlightAware ADS-B
Mon 10:56:47 PM 21.5070 -87.3330 137° Southeast 493 567 33,000  Level FlightAware ADS-B
Mon 10:57:19 PM 21.4530 -87.2800 138° Southeast 494 568 33,000  Level FlightAware ADS-B
Mon 10:58:00 PM 21.3860 -87.2140 137° Southeast 496 571 33,000  Level FlightAware ADS-B
Mon 10:58:32 PM 21.3290 -87.1580 138° Southeast 497 572 33,000  Level FlightAware ADS-B
Mon 10:59:09 PM 21.2680 -87.0970 137° Southeast 497 572 33,000  Level FlightAware ADS-B
Mon 10:59:45 PM 21.2040 -87.0340 137° Southeast 498 573 33,000  Level FlightAware ADS-B
Mon 11:00:25 PM 21.1530 -86.9620 127° Southeast 493 567 33,000  Level FlightAware ADS-B
Mon 11:01:03 PM 21.1050 -86.8610 117° Southeast 492 566 33,000  Level FlightAware ADS-B
Mon 11:01:35 PM 21.0690 -86.7930 120° Southeast 496 571 33,000  Level FlightAware ADS-B
Mon 11:02:11 PM 21.0220 -86.7190 124° Southeast 498 573 33,000  Level FlightAware ADS-B
Mon 11:02:47 PM 20.9750 -86.6440 124° Southeast 495 570 33,000  Level FlightAware ADS-B
Mon 11:03:23 PM 20.9230 -86.5800 131° Southeast 499 574 33,000  Level FlightAware ADS-B
Mon 11:03:55 PM 20.8640 -86.5310 142° Southeast 502 578 33,000  Level FlightAware ADS-B
Mon 11:04:31 PM 20.7960 -86.4800 145° Southeast 503 579 33,000  Level FlightAware ADS-B
Mon 11:05:05 PM 20.7510 -86.4450 144° Southeast 502 578 33,000  Level FlightAware ADS-B
Mon 11:05:38 PM 20.6810 -86.3920 145° Southeast 502 578 33,000  Level FlightAware ADS-B
Mon 11:06:21 PM 20.5860 -86.3200 145° Southeast 503 579 33,000  Level FlightAware ADS-B
Mon 11:06:55 PM 20.5200 -86.2700 145° Southeast 502 578 33,000  Level FlightAware ADS-B
Mon 11:07:51 PM 20.4240 -86.1960 144° Southeast 501 577 33,000  Level FlightAware ADS-B
Mon 11:08:28 PM 20.3660 -86.1510 144° Southeast 501 577 33,000  Level FlightAware ADS-B
Mon 11:09:01 PM 20.2950 -86.0990 146° Southeast 504 580 33,000  Level FlightAware ADS-B
Mon 11:09:44 PM 20.2100 -86.0340 144° Southeast 503 579 33,000  Level FlightAware ADS-B
Mon 11:10:24 PM 20.1460 -85.9850 144° Southeast 503 579 33,000  Level FlightAware ADS-B
Mon 11:10:55 PM 20.0670 -85.9260 145° Southeast 501 577 33,000  Level FlightAware ADS-B
Mon 11:11:32 PM 20.0020 -85.8720 142° Southeast 499 574 33,000  Level FlightAware ADS-B
Mon 11:12:07 PM 19.9370 -85.8120 139° Southeast 497 572 33,000  Level FlightAware ADS-B
Mon 11:12:43 PM 19.8750 -85.7530 138° Southeast 497 572 33,000  Level FlightAware ADS-B
Mon 11:13:15 PM 19.8200 -85.7010 138° Southeast 494 568 33,000  Level FlightAware ADS-B
Mon 11:13:52 PM 19.7580 -85.6430 139° Southeast 495 570 33,000  Level FlightAware ADS-B
Mon 11:14:24 PM 19.7040 -85.5920 138° Southeast 495 570 33,000  Level FlightAware ADS-B
Mon 11:15:17 PM 19.6110 -85.5050 139° Southeast 497 572 33,000  Level FlightAware ADS-B
Mon 11:16:06 PM 19.5290 -85.4270 138° Southeast 497 572 33,000  Level FlightAware ADS-B
Mon 11:16:56 PM 19.4470 -85.3500 138° Southeast 497 572 33,000  Level FlightAware ADS-B
Mon 11:17:25 PM 19.3900 -85.2970 139° Southeast 495 570 33,000  Level FlightAware ADS-B
Mon 11:18:02 PM 19.3360 -85.2460 138° Southeast 495 570 33,000  Level FlightAware ADS-B
Mon 11:18:52 PM 19.2410 -85.1580 139° Southeast 495 570 33,000  Level FlightAware ADS-B
Mon 11:19:31 PM 19.1840 -85.1040 138° Southeast 495 570 33,000  Level FlightAware ADS-B
Mon 11:20:07 PM 19.1320 -85.0550 138° Southeast 495 570 33,000  Level FlightAware ADS-B
Mon 11:20:43 PM 19.0800 -85.0050 138° Southeast 495 570 33,000  Level FlightAware ADS-B
Mon 11:21:20 PM 19.0260 -84.9540 138° Southeast 495 570 33,000  Level FlightAware ADS-B
Mon 11:21:56 PM 18.9740 -84.9040 138° Southeast 495 570 33,000  Level FlightAware ADS-B
Mon 11:22:32 PM 18.9220 -84.8550 138° Southeast 495 570 33,000  Level FlightAware ADS-B
Mon 11:23:08 PM 18.8700 -84.8050 138° Southeast 495 570 33,000  Level FlightAware ADS-B
Mon 11:23:44 PM 18.8180 -84.7560 138° Southeast 495 570 33,000  Level FlightAware ADS-B
Mon 11:24:20 PM 18.7660 -84.7060 138° Southeast 495 570 33,000  Level FlightAware ADS-B
Mon 11:24:57 PM 18.7120 -84.6550 138° Southeast 495 570 33,000  Level FlightAware ADS-B
Mon 11:25:33 PM 18.6600 -84.6060 138° Southeast 495 570 33,000  Level FlightAware ADS-B
Mon 11:26:09 PM 18.6080 -84.5560 138° Southeast 495 570 33,000  Level FlightAware ADS-B
Mon 11:26:45 PM 18.5560 -84.5070 138° Southeast 495 570 33,000  Level FlightAware ADS-B
Mon 11:27:21 PM 18.5040 -84.4570 138° Southeast 495 570 33,000  Level FlightAware ADS-B
Mon 11:27:58 PM 18.4510 -84.4070 138° Southeast 495 570 33,000  Level FlightAware ADS-B
Mon 11:28:34 PM 18.3990 -84.3570 138° Southeast 495 570 33,000  Level FlightAware ADS-B
Mon 11:31:00 PM 18.1531 -84.1415 140° Southeast  Level FlightAware Approximate
Mon 11:32:00 PM 18.0520 -84.0531 140° Southeast  Level FlightAware Approximate
Mon 11:33:00 PM 17.9508 -83.9648 140° Southeast  Level FlightAware Approximate
Mon 11:34:00 PM 17.8496 -83.8766 140° Southeast  Level FlightAware Approximate
Mon 11:35:00 PM 17.7493 -83.7872 139° Southeast  Level FlightAware Approximate
Mon 11:36:00 PM 17.6500 -83.6968 139° Southeast  Level FlightAware Approximate
Mon 11:37:00 PM 17.5506 -83.6065 139° Southeast  Level FlightAware Approximate
Mon 11:38:00 PM 17.4512 -83.5163 139° Southeast  Level FlightAware Approximate
Mon 11:39:00 PM 17.3517 -83.4262 139° Southeast  Level FlightAware Approximate
Mon 11:40:00 PM 17.2522 -83.3363 139° Southeast  Level FlightAware Approximate
Mon 11:41:00 PM 17.1527 -83.2464 139° Southeast  Level FlightAware Approximate
Mon 11:42:00 PM 17.0531 -83.1565 139° Southeast  Level FlightAware Approximate
Mon 11:43:00 PM 16.9534 -83.0668 139° Southeast  Level FlightAware Approximate
Mon 11:44:00 PM 16.8538 -82.9772 139° Southeast  Level FlightAware Approximate
Mon 11:45:00 PM 16.7541 -82.8877 139° Southeast  Level FlightAware Approximate
Mon 11:46:00 PM 16.6543 -82.7983 139° Southeast  Level FlightAware Approximate
Mon 11:47:00 PM 16.5545 -82.7090 139° Southeast  Level FlightAware Approximate
Mon 11:48:00 PM 16.4547 -82.6197 139° Southeast  Level FlightAware Approximate
Mon 11:49:00 PM 16.3549 -82.5306 139° Southeast  Level FlightAware Approximate
Mon 11:50:00 PM 16.2550 -82.4415 139° Southeast  Level FlightAware Approximate
Mon 11:51:00 PM 16.1550 -82.3526 139° Southeast  Level FlightAware Approximate
Mon 11:52:00 PM 16.0551 -82.2637 139° Southeast  Level FlightAware Approximate
Mon 11:53:00 PM 15.9551 -82.1749 140° Southeast  Level FlightAware Approximate
Mon 11:54:00 PM 15.8550 -82.0863 140° Southeast  Level FlightAware Approximate
Mon 11:55:00 PM 15.7549 -81.9977 140° Southeast  Level FlightAware Approximate
Mon 11:56:00 PM 15.6548 -81.9092 140° Southeast  Level FlightAware Approximate
Mon 11:57:00 PM 15.5546 -81.8207 140° Southeast  Level FlightAware Approximate
Mon 11:58:00 PM 15.4544 -81.7324 140° Southeast  Level FlightAware Approximate
Mon 11:59:00 PM 15.3542 -81.6442 140° Southeast  Level FlightAware Approximate
Tue 12:00:00 AM 15.2539 -81.5560 140° Southeast  Level FlightAware Approximate
Tue 12:01:00 AM 15.1536 -81.4680 140° Southeast  Level FlightAware Approximate
Tue 12:02:00 AM 15.0532 -81.3800 140° Southeast  Level FlightAware Approximate
Tue 12:03:00 AM 14.9528 -81.2921 140° Southeast  Level FlightAware Approximate
Tue 12:04:00 AM 14.8523 -81.2045 140° Southeast  Level FlightAware Approximate
Tue 12:05:00 AM 14.7517 -81.1169 140° Southeast  Level FlightAware Approximate
Tue 12:06:00 AM 14.6511 -81.0294 140° Southeast  Level FlightAware Approximate
Tue 12:07:00 AM 14.5505 -80.9419 140° Southeast  Level FlightAware Approximate
Tue 12:08:00 AM 14.4498 -80.8546 140° Southeast  Level FlightAware Approximate
Tue 12:09:00 AM 14.3491 -80.7673 140° Southeast  Level FlightAware Approximate
Tue 12:10:00 AM 14.2484 -80.6801 140° Southeast  Level FlightAware Approximate
Tue 12:11:00 AM 14.1476 -80.5930 140° Southeast  Level FlightAware Approximate
Tue 12:12:00 AM 14.0468 -80.5060 140° Southeast  Level FlightAware Approximate
Tue 12:13:00 AM 13.9460 -80.4190 140° Southeast  Level FlightAware Approximate
Tue 12:14:00 AM 13.8452 -80.3322 140° Southeast  Level FlightAware Approximate
Tue 12:15:00 AM 13.7443 -80.2454 140° Southeast  Level FlightAware Approximate
Tue 12:16:00 AM 13.6434 -80.1586 140° Southeast  Level FlightAware Approximate
Tue 12:17:00 AM 13.5425 -80.0719 140° Southeast  Level FlightAware Approximate
Tue 12:18:00 AM 13.4415 -79.9853 140° Southeast  Level FlightAware Approximate
Tue 12:19:00 AM 13.3406 -79.8987 140° Southeast  Level FlightAware Approximate
Tue 12:20:00 AM 13.2396 -79.8122 140° Southeast  Level FlightAware Approximate
Tue 12:21:00 AM 13.1386 -79.7258 140° Southeast  Level FlightAware Approximate
Tue 12:22:00 AM 13.0375 -79.6395 140° Southeast  Level FlightAware Approximate
Tue 12:23:00 AM 12.9364 -79.5532 140° Southeast  Level FlightAware Approximate
Tue 12:24:00 AM 12.8353 -79.4670 140° Southeast  Level FlightAware Approximate
Tue 12:25:00 AM 12.7342 -79.3808 140° Southeast  Level FlightAware Approximate
Tue 12:26:00 AM 12.6330 -79.2947 140° Southeast  Level FlightAware Approximate
Tue 12:27:00 AM 12.5322 -79.2084 140° Southeast  Level FlightAware Approximate
Tue 12:28:00 AM 12.4314 -79.1219 140° Southeast  Level FlightAware Approximate
Tue 12:29:00 AM 12.3306 -79.0355 140° Southeast  Level FlightAware Approximate
Tue 12:30:00 AM 12.2298 -78.9491 140° Southeast  Level FlightAware Approximate
Tue 12:31:00 AM 12.1289 -78.8628 140° Southeast  Level FlightAware Approximate
Tue 12:32:00 AM 12.0281 -78.7766 140° Southeast  Level FlightAware Approximate
Tue 12:33:00 AM 11.9271 -78.6905 140° Southeast  Level FlightAware Approximate
Tue 12:34:00 AM 11.8262 -78.6044 140° Southeast  Level FlightAware Approximate
Tue 12:35:00 AM 11.7253 -78.5183 140° Southeast  Level FlightAware Approximate
Tue 12:36:00 AM 11.6243 -78.4324 140° Southeast  Level FlightAware Approximate
Tue 12:37:00 AM 11.5231 -78.3467 140° Southeast  Level FlightAware Approximate
Tue 12:38:00 AM 11.4217 -78.2613 140° Southeast  Level FlightAware Approximate
Tue 12:39:00 AM 11.3202 -78.1760 141° Southeast  Level FlightAware Approximate
Tue 12:40:00 AM 11.2188 -78.0908 141° Southeast  Level FlightAware Approximate
Tue 12:40:09 AM 10.9760 -77.4300 141° Southeast 475 547 33,000  Level FlightAware ADS-B
Tue 12:40:44 AM 10.9160 -77.3770 139° Southeast 482 555 33,000  Level FlightAware ADS-B
Tue 12:41:19 AM 10.8630 -77.3280 138° Southeast 484 557 33,000  Level FlightAware ADS-B
Tue 12:41:54 AM 10.8010 -77.2690 137° Southeast 484 557 33,000  Level FlightAware ADS-B
Tue 12:42:34 AM 10.7390 -77.2070 136° Southeast 477 549 33,000  Level FlightAware ADS-B
Tue 12:43:15 AM 10.6900 -77.1340 124° Southeast 478 550 33,000  Level FlightAware ADS-B
Tue 12:43:55 AM 10.6480 -77.0700 124° Southeast 478 550 33,000  Level FlightAware ADS-B
Tue 12:44:19 AM 10.6210 -76.9970 111° Southeast 484 557 33,000  Level FlightAware ADS-B
Tue 12:45:11 AM 10.5730 -76.8990 116° Southeast 486 559 33,000  Level FlightAware ADS-B
Tue 12:45:54 AM 10.5250 -76.8030 117° Southeast 489 563 33,000  Level FlightAware ADS-B
Tue 12:46:29 AM 10.4880 -76.7280 117° Southeast 491 565 33,000  Level FlightAware ADS-B
Tue 12:47:10 AM 10.4510 -76.6510 116° Southeast 491 565 33,000  Level FlightAware ADS-B
Tue 12:47:45 AM 10.4100 -76.5690 117° Southeast 492 566 33,000  Level FlightAware ADS-B
Tue 12:48:30 AM 10.3760 -76.4960 115° Southeast 492 566 33,000  Level FlightAware ADS-B
Tue 12:49:04 AM 10.3360 -76.4010 113° Southeast 498 573 33,000  Level FlightAware ADS-B
Tue 12:49:44 AM 10.3050 -76.3150 110° East 496 571 33,000  Level FlightAware ADS-B
Tue 12:50:19 AM 10.2740 -76.2420 113° Southeast 498 573 33,000  Level FlightAware ADS-B
Tue 12:50:54 AM 10.2370 -76.1670 117° Southeast 499 574 33,000  Level FlightAware ADS-B
Tue 12:51:29 AM 10.1940 -76.0990 123° Southeast 499 574 33,000  Level FlightAware ADS-B
Tue 12:52:04 AM 10.1480 -76.0300 124° Southeast 497 572 33,000  Level FlightAware ADS-B
Tue 12:52:39 AM 10.1010 -75.9640 126° Southeast 498 573 33,000  Level FlightAware ADS-B
Tue 12:53:14 AM 10.0540 -75.8980 126° Southeast 496 571 33,000  Level FlightAware ADS-B
Tue 12:53:49 AM 10.0070 -75.8310 125° Southeast 496 571 33,000  Level FlightAware ADS-B
Tue 12:54:24 AM 9.9600 -75.7690 128° Southeast 497 572 33,000  Level FlightAware ADS-B
Tue 12:54:59 AM 9.9090 -75.7030 128° Southeast 497 572 33,000  Level FlightAware ADS-B
Tue 12:55:34 AM 9.8600 -75.6390 128° Southeast 497 572 33,000  Level FlightAware ADS-B
Tue 12:56:09 AM 9.8100 -75.5740 128° Southeast 496 571 33,000  Level FlightAware ADS-B
Tue 12:56:44 AM 9.7600 -75.5090 128° Southeast 497 572 33,000  Level FlightAware ADS-B
Tue 12:57:19 AM 9.7110 -75.4440 127° Southeast 498 573 33,000  Level FlightAware ADS-B
Tue 12:57:54 AM 9.6660 -75.3860 128° Southeast 500 575 33,000  Level FlightAware ADS-B
Tue 12:58:30 AM 9.6080 -75.3310 137° Southeast 499 574 33,000  Level FlightAware ADS-B
Tue 12:59:04 AM 9.5420 -75.2760 141° Southeast 497 572 33,000  Level FlightAware ADS-B
Tue 12:59:39 AM 9.4820 -75.2180 136° Southeast 493 567 33,000  Level FlightAware ADS-B
Tue 01:00:14 AM 9.4360 -75.1500 124° Southeast 490 564 33,000  Level FlightAware ADS-B
Tue 01:00:49 AM 9.3970 -75.0850 121° Southeast 489 563 33,000  Level FlightAware ADS-B
Tue 01:01:24 AM 9.3550 -75.0150 121° Southeast 487 560 33,000  Level FlightAware ADS-B
Tue 01:01:59 AM 9.3150 -74.9480 121° Southeast 487 560 33,000  Level FlightAware ADS-B
Tue 01:02:34 AM 9.2750 -74.8800 121° Southeast 488 562 33,000  Level FlightAware ADS-B
Tue 01:03:09 AM 9.2330 -74.8110 122° Southeast 490 564 33,000  Level FlightAware ADS-B
Tue 01:03:44 AM 9.1960 -74.7460 120° Southeast 490 564 33,000  Level FlightAware ADS-B
Tue 01:04:19 AM 9.1510 -74.6720 122° Southeast 491 565 33,000  Level FlightAware ADS-B
Tue 01:04:54 AM 9.1090 -74.6020 121° Southeast 492 566 33,000  Level FlightAware ADS-B
Tue 01:05:29 AM 9.0690 -74.5370 122° Southeast 492 566 33,000  Level FlightAware ADS-B
Tue 01:06:09 AM 9.0210 -74.4570 121° Southeast 492 566 33,000  Level FlightAware ADS-B
Tue 01:06:49 AM 8.9740 -74.3810 122° Southeast 490 564 33,000  Level FlightAware ADS-B
Tue 01:07:24 AM 8.9310 -74.3090 121° Southeast 488 562 33,000  Level FlightAware ADS-B
Tue 01:07:54 AM 8.8900 -74.2560 128° Southeast 489 563 33,000  Level FlightAware ADS-B
Tue 01:08:29 AM 8.8410 -74.2020 133° Southeast 487 560 33,000  Level FlightAware ADS-B
Tue 01:09:04 AM 8.7820 -74.1380 133° Southeast 487 560 33,000  Level FlightAware ADS-B
Tue 01:09:39 AM 8.7210 -74.0920 143° Southeast 487 560 33,000  Level FlightAware ADS-B
Tue 01:10:19 AM 8.6440 -74.0420 147° Southeast 487 560 33,000  Level FlightAware ADS-B
Tue 01:10:49 AM 8.5820 -74.0100 153° Southeast 488 562 33,000  Level FlightAware ADS-B
Tue 01:11:24 AM 8.5080 -73.9830 160° South 487 560 33,000  Level FlightAware ADS-B
Tue 01:11:59 AM 8.4400 -73.9610 162° South 487 560 33,000  Level FlightAware ADS-B
Tue 01:12:34 AM 8.3560 -73.9470 171° South 486 559 33,000  Level FlightAware ADS-B
Tue 01:13:09 AM 8.2760 -73.9380 174° South 485 558 33,000  Level FlightAware ADS-B
Tue 01:13:49 AM 8.1880 -73.9290 174° South 483 556 33,000  Level FlightAware ADS-B
Tue 01:14:19 AM 8.1200 -73.9210 173° South 483 556 33,000  Level FlightAware ADS-B
Tue 01:15:04 AM 8.0200 -73.9100 174° South 486 559 33,000  Level FlightAware ADS-B
Tue 01:15:44 AM 7.9310 -73.8990 173° South 487 560 33,000  Level FlightAware ADS-B
Tue 01:16:24 AM 7.8400 -73.8890 174° South 488 562 33,000  Level FlightAware ADS-B
Tue 01:16:54 AM 7.7720 -73.8820 174° South 489 563 33,000  Level FlightAware ADS-B
Tue 01:17:29 AM 7.6920 -73.8740 174° South 490 564 33,000  Level FlightAware ADS-B
Tue 01:18:04 AM 7.6130 -73.8650 174° South 491 565 33,000  Level FlightAware ADS-B
Tue 01:18:40 AM 7.5370 -73.8460 166° South 489 563 33,000  Level FlightAware ADS-B
Tue 01:19:26 AM 7.4540 -73.8130 158° South 488 562 33,000  Level FlightAware ADS-B
Tue 01:20:02 AM 7.3890 -73.7890 160° South 488 562 33,000  Level FlightAware ADS-B
Tue 01:20:38 AM 7.3240 -73.7660 161° South 488 562 33,000  Level FlightAware ADS-B
Tue 01:21:14 AM 7.2230 -73.6930 144° Southeast 485 558 33,000  Level FlightAware ADS-B
Tue 01:21:49 AM 7.1510 -73.6580 154° Southeast 486 559 33,000  Level FlightAware ADS-B
Tue 01:22:24 AM 7.0820 -73.6240 154° Southeast 486 559 33,000  Level FlightAware ADS-B
Tue 01:23:09 AM 6.9920 -73.5820 155° Southeast 486 559 33,000  Level FlightAware ADS-B
Tue 01:23:51 AM 6.9030 -73.5390 154° Southeast 488 562 33,000  Level FlightAware ADS-B
Tue 01:24:27 AM 6.8270 -73.5040 155° Southeast 489 563 33,000  Level FlightAware ADS-B
Tue 01:24:59 AM 6.7600 -73.4720 155° Southeast 488 562 33,000  Level FlightAware ADS-B
Tue 01:25:35 AM 6.6860 -73.4370 155° Southeast 488 562 33,000  Level FlightAware ADS-B
Tue 01:26:07 AM 6.6240 -73.4070 154° Southeast 488 562 33,000  Level FlightAware ADS-B
Tue 01:26:45 AM 6.5450 -73.3700 155° Southeast 488 562 33,000  Level FlightAware ADS-B
Tue 01:27:21 AM 6.4700 -73.3340 155° Southeast 491 565 33,000  Level FlightAware ADS-B
Tue 01:27:57 AM 6.3950 -73.2990 155° Southeast 492 566 33,000  Level FlightAware ADS-B
Tue 01:28:43 AM 6.3120 -73.2590 154° Southeast 492 566 33,000  Level FlightAware ADS-B
Tue 01:29:19 AM 6.2490 -73.2280 154° Southeast 492 566 33,000  Level FlightAware ADS-B
Tue 01:29:55 AM 6.1870 -73.1970 154° Southeast 492 566 33,000  Level FlightAware ADS-B
Tue 01:30:31 AM 6.1240 -73.1670 155° Southeast 492 566 33,000  Level FlightAware ADS-B
Tue 01:31:07 AM 6.0620 -73.1360 154° Southeast 492 566 33,000  Level FlightAware ADS-B
Tue 01:31:43 AM 5.9990 -73.1050 154° Southeast 492 566 33,000  Level FlightAware ADS-B
Tue 01:32:19 AM 5.9360 -73.0740 154° Southeast 492 566 33,000  Level FlightAware ADS-B
Tue 01:32:56 AM 5.8720 -73.0430 154° Southeast 492 566 33,000  Level FlightAware ADS-B
Tue 01:33:32 AM 5.8090 -73.0120 154° Southeast 492 566 33,000  Level FlightAware ADS-B
Tue 01:34:08 AM 5.7470 -72.9820 154° Southeast 492 566 33,000  Level FlightAware ADS-B
Tue 01:34:42 AM 5.5670 -72.9080 158° South 483 556 33,000  Level FlightAware ADS-B
Tue 01:35:14 AM 5.5020 -72.8770 155° Southeast 486 559 33,000  Level FlightAware ADS-B
Tue 01:35:52 AM 5.4250 -72.8410 155° Southeast 486 559 33,000  Level FlightAware ADS-B
Tue 01:36:25 AM 5.3580 -72.8090 155° Southeast 486 559 33,000  Level FlightAware ADS-B
Tue 01:37:01 AM 5.2830 -72.7740 155° Southeast 485 558 33,000  Level FlightAware ADS-B
Tue 01:37:37 AM 5.2120 -72.7410 155° Southeast 484 557 33,000  Level FlightAware ADS-B
Tue 01:38:14 AM 5.1490 -72.7100 154° Southeast 484 557 33,000  Level FlightAware ADS-B
Tue 01:38:50 AM 5.0870 -72.6790 154° Southeast 484 557 33,000  Level FlightAware ADS-B
Tue 01:39:27 AM 5.0240 -72.6480 154° Southeast 484 557 33,000  Level FlightAware ADS-B
Tue 01:40:03 AM 4.9620 -72.6180 154° Southeast 484 557 33,000  Level FlightAware ADS-B
Tue 01:40:39 AM 4.9010 -72.5880 154° Southeast 484 557 33,000  Level FlightAware ADS-B
Tue 01:41:15 AM 4.8390 -72.5580 154° Southeast 484 557 33,000  Level FlightAware ADS-B
Tue 01:41:51 AM 4.7780 -72.5280 154° Southeast 484 557 33,000  Level FlightAware ADS-B
Tue 01:42:27 AM 4.7160 -72.4980 154° Southeast 484 557 33,000  Level FlightAware ADS-B
Tue 01:43:04 AM 4.6530 -72.4670 154° Southeast 484 557 33,000  Level FlightAware ADS-B
Tue 01:43:40 AM 4.5910 -72.4370 154° Southeast 484 557 33,000  Level FlightAware ADS-B
Tue 01:44:16 AM 4.5300 -72.4060 153° Southeast 484 557 33,000  Level FlightAware ADS-B
Tue 01:44:52 AM 4.4680 -72.3760 154° Southeast 484 557 33,000  Level FlightAware ADS-B
Tue 01:45:28 AM 4.4060 -72.3460 154° Southeast 484 557 33,000  Level FlightAware ADS-B
Tue 01:46:04 AM 4.3450 -72.3160 154° Southeast 484 557 33,000  Level FlightAware ADS-B
Tue 01:46:40 AM 4.2830 -72.2860 154° Southeast 484 557 33,000  Level FlightAware ADS-B
Tue 01:47:17 AM 4.2200 -72.2550 154° Southeast 484 557 33,000 Level FlightAware ADS-B
Tue 01:49:00 AM 4.0122 -72.1668 157° South  Level FlightAware Approximate
Tue 01:50:00 AM 3.9132 -72.0800 145° Southeast  Level Estimated
Tue 01:51:00 AM 3.8050 -72.0052 145° Southeast  Level FlightAware Approximate
Tue 01:52:00 AM 3.6968 -71.9304 145° Southeast  Level FlightAware Approximate
Tue 01:53:00 AM 3.5885 -71.8557 145° Southeast  Level FlightAware Approximate
Tue 01:54:00 AM 3.4803 -71.7809 145° Southeast  Level FlightAware Approximate
Tue 01:55:00 AM 3.3720 -71.7062 145° Southeast  Level FlightAware Approximate
Tue 01:56:00 AM 3.2637 -71.6315 145° Southeast  Level FlightAware Approximate
Tue 01:57:00 AM 3.1555 -71.5568 145° Southeast  Level FlightAware Approximate
Tue 01:58:00 AM 3.0472 -71.4821 145° Southeast  Level FlightAware Approximate
Tue 01:59:00 AM 2.9389 -71.4074 145° Southeast  Level FlightAware Approximate
Tue 02:00:00 AM 2.8306 -71.3328 145° Southeast  Level FlightAware Approximate
Tue 02:01:00 AM 2.7223 -71.2581 145° Southeast  Level FlightAware Approximate
Tue 02:02:00 AM 2.6140 -71.1835 145° Southeast  Level FlightAware Approximate
Tue 02:03:00 AM 2.5057 -71.1089 145° Southeast  Level FlightAware Approximate
Tue 02:04:00 AM 2.3974 -71.0343 145° Southeast  Level FlightAware Approximate
Tue 02:05:00 AM 2.2891 -70.9597 145° Southeast  Level FlightAware Approximate
Tue 02:06:00 AM 2.1808 -70.8852 145° Southeast  Level FlightAware Approximate
Tue 02:07:00 AM 2.0725 -70.8106 145° Southeast  Level FlightAware Approximate
Tue 02:08:00 AM 1.9641 -70.7361 145° Southeast  Level FlightAware Approximate
Tue 02:09:00 AM 1.8558 -70.6615 145° Southeast  Level FlightAware Approximate
Tue 02:10:00 AM 1.7475 -70.5870 145° Southeast  Level FlightAware Approximate
Tue 02:11:00 AM 1.6392 -70.5125 145° Southeast  Level FlightAware Approximate
Tue 02:12:00 AM 1.5308 -70.4379 145° Southeast  Level FlightAware Approximate
Tue 02:13:00 AM 1.4225 -70.3634 145° Southeast  Level FlightAware Approximate
Tue 02:14:00 AM 1.3142 -70.2889 145° Southeast  Level FlightAware Approximate
Tue 02:15:00 AM 1.2159 -70.2016 138° Southeast  Level Estimated
Tue 02:16:00 AM 1.1177 -70.1141 138° Southeast  Level FlightAware Approximate
Tue 02:17:00 AM 1.0195 -70.0267 138° Southeast  Level FlightAware Approximate
Tue 02:18:00 AM 0.9212 -69.9393 138° Southeast  Level FlightAware Approximate
Tue 02:19:00 AM 0.8230 -69.8520 138° Southeast  Level FlightAware Approximate
Tue 02:20:00 AM 0.7248 -69.7646 138° Southeast  Level FlightAware Approximate
Tue 02:21:00 AM 0.6266 -69.6772 138° Southeast  Level FlightAware Approximate
Tue 02:22:00 AM 0.5283 -69.5898 138° Southeast  Level FlightAware Approximate
Tue 02:23:00 AM 0.4301 -69.5024 138° Southeast  Level FlightAware Approximate
Tue 02:24:00 AM 0.3319 -69.4150 138° Southeast  Level FlightAware Approximate
Tue 02:25:00 AM 0.2336 -69.3277 138° Southeast  Level FlightAware Approximate
Tue 02:26:00 AM 0.1354 -69.2403 138° Southeast  Level FlightAware Approximate
Tue 02:27:00 AM 0.0371 -69.1529 138° Southeast  Level FlightAware Approximate
Tue 02:28:00 AM -0.0611 -69.0655 138° Southeast  Level FlightAware Approximate
Tue 02:29:00 AM -0.1593 -68.9782 138° Southeast  Level FlightAware Approximate
Tue 02:30:00 AM -0.2576 -68.8908 138° Southeast  Level FlightAware Approximate
Tue 02:31:00 AM -0.3558 -68.8034 138° Southeast  Level FlightAware Approximate
Tue 02:32:00 AM -0.4540 -68.7160 138° Southeast  Level FlightAware Approximate
Tue 02:33:00 AM -0.5523 -68.6287 138° Southeast  Level FlightAware Approximate
Tue 02:34:00 AM -0.6505 -68.5413 138° Southeast  Level FlightAware Approximate
Tue 02:35:00 AM -0.7487 -68.4539 138° Southeast  Level FlightAware Approximate
Tue 02:36:00 AM -0.8469 -68.3665 138° Southeast  Level FlightAware Approximate
Tue 02:37:00 AM -0.9452 -68.2791 138° Southeast  Level FlightAware Approximate
Tue 02:38:00 AM -1.0434 -68.1917 138° Southeast  Level FlightAware Approximate
Tue 02:39:00 AM -1.1416 -68.1043 138° Southeast  Level FlightAware Approximate
Tue 02:40:00 AM -1.2398 -68.0169 138° Southeast  Level FlightAware Approximate
Tue 02:41:00 AM -1.3381 -67.9295 138° Southeast  Level FlightAware Approximate
Tue 02:42:00 AM -1.4363 -67.8420 138° Southeast  Level FlightAware Approximate
Tue 02:43:00 AM -1.5345 -67.7546 138° Southeast  Level FlightAware Approximate
Tue 02:44:00 AM -1.6327 -67.6672 138° Southeast  Level FlightAware Approximate
Tue 02:45:00 AM -1.7309 -67.5797 138° Southeast  Level FlightAware Approximate
Tue 02:46:00 AM -1.8291 -67.4922 138° Southeast  Level FlightAware Approximate
Tue 02:47:00 AM -1.9273 -67.4048 138° Southeast  Level FlightAware Approximate
Tue 02:48:00 AM -2.0255 -67.3173 138° Southeast  Level FlightAware Approximate
Tue 02:49:00 AM -2.1237 -67.2298 138° Southeast  Level FlightAware Approximate
Tue 02:50:00 AM -2.2218 -67.1423 138° Southeast  Level FlightAware Approximate
Tue 02:51:00 AM -2.3200 -67.0548 138° Southeast  Level FlightAware Approximate
Tue 02:52:00 AM -2.4182 -66.9673 138° Southeast  Level FlightAware Approximate
Tue 02:53:00 AM -2.5163 -66.8797 138° Southeast  Level FlightAware Approximate
Tue 02:54:00 AM -2.6145 -66.7922 138° Southeast  Level FlightAware Approximate
Tue 02:55:00 AM -2.7127 -66.7046 138° Southeast  Level FlightAware Approximate
Tue 02:56:00 AM -2.8108 -66.6171 138° Southeast  Level FlightAware Approximate
Tue 02:57:00 AM -2.9089 -66.5295 138° Southeast  Level FlightAware Approximate
Tue 02:58:00 AM -3.0071 -66.4418 138° Southeast  Level FlightAware Approximate
Tue 02:59:00 AM -3.1052 -66.3542 138° Southeast  Level FlightAware Approximate
Tue 03:00:00 AM -3.2033 -66.2666 138° Southeast  Level FlightAware Approximate
Tue 03:01:00 AM -3.3014 -66.1789 138° Southeast  Level FlightAware Approximate
Tue 03:02:00 AM -3.3995 -66.0913 138° Southeast  Level FlightAware Approximate
Tue 03:03:00 AM -3.4976 -66.0036 138° Southeast  Level FlightAware Approximate
Tue 03:04:00 AM -3.5957 -65.9159 138° Southeast  Level FlightAware Approximate
Tue 03:05:00 AM -3.6938 -65.8281 138° Southeast  Level FlightAware Approximate
Tue 03:06:00 AM -3.7919 -65.7404 138° Southeast  Level FlightAware Approximate
Tue 03:07:00 AM -3.8899 -65.6526 138° Southeast  Level FlightAware Approximate
Tue 03:08:00 AM -3.9880 -65.5648 138° Southeast  Level FlightAware Approximate
Tue 03:09:00 AM -4.0860 -65.4770 138° Southeast  Level FlightAware Approximate
Tue 03:10:00 AM -4.1840 -65.3892 138° Southeast  Level FlightAware Approximate
Tue 03:11:00 AM -4.2821 -65.3013 138° Southeast  Level FlightAware Approximate
Tue 03:12:00 AM -4.3801 -65.2135 138° Southeast  Level FlightAware Approximate
Tue 03:13:00 AM -4.4781 -65.1256 138° Southeast  Level FlightAware Approximate
Tue 03:14:00 AM -4.5761 -65.0376 138° Southeast  Level FlightAware Approximate
Tue 03:15:00 AM -4.6740 -64.9497 138° Southeast  Level FlightAware Approximate
Tue 03:16:00 AM -4.7720 -64.8617 138° Southeast  Level FlightAware Approximate
Tue 03:17:00 AM -4.8700 -64.7737 138° Southeast  Level FlightAware Approximate
Tue 03:18:00 AM -4.9679 -64.6857 138° Southeast  Level FlightAware Approximate
Tue 03:19:00 AM -5.0659 -64.5976 138° Southeast  Level FlightAware Approximate
Tue 03:20:00 AM -5.1638 -64.5096 138° Southeast  Level FlightAware Approximate
Tue 03:21:00 AM -5.2617 -64.4215 138° Southeast  Level FlightAware Approximate
Tue 03:22:00 AM -5.3596 -64.3334 138° Southeast  Level FlightAware Approximate
Tue 03:23:00 AM -5.4575 -64.2452 138° Southeast  Level FlightAware Approximate
Tue 03:24:00 AM -5.5553 -64.1570 138° Southeast  Level FlightAware Approximate
Tue 03:25:00 AM -5.6532 -64.0688 138° Southeast  Level FlightAware Approximate
Tue 03:26:00 AM -5.7511 -63.9805 138° Southeast  Level FlightAware Approximate
Tue 03:27:00 AM -5.8489 -63.8923 138° Southeast  Level FlightAware Approximate
Tue 03:28:00 AM -5.9467 -63.8040 138° Southeast  Level FlightAware Approximate
Tue 03:29:00 AM -6.0440 -63.7161 138° Southeast  Level FlightAware Approximate
Tue 03:30:00 AM -6.1413 -63.6282 138° Southeast  Level FlightAware Approximate
Tue 03:31:00 AM -6.2385 -63.5402 138° Southeast  Level FlightAware Approximate
Tue 03:32:00 AM -6.3358 -63.4523 138° Southeast  Level FlightAware Approximate
Tue 03:33:00 AM -6.4330 -63.3643 138° Southeast  Level FlightAware Approximate
Tue 03:34:00 AM -6.5302 -63.2762 138° Southeast  Level FlightAware Approximate
Tue 03:35:00 AM -6.6274 -63.1882 138° Southeast  Level FlightAware Approximate
Tue 03:36:00 AM -6.7246 -63.1001 138° Southeast  Level FlightAware Approximate
Tue 03:37:00 AM -6.8218 -63.0119 138° Southeast  Level FlightAware Approximate
Tue 03:38:00 AM -6.9190 -62.9238 138° Southeast  Level FlightAware Approximate
Tue 03:39:00 AM -7.0161 -62.8355 138° Southeast  Level FlightAware Approximate
Tue 03:40:00 AM -7.1132 -62.7473 138° Southeast  Level FlightAware Approximate
Tue 03:41:00 AM -7.2103 -62.6590 138° Southeast  Level FlightAware Approximate
Tue 03:42:00 AM -7.3074 -62.5707 138° Southeast  Level FlightAware Approximate
Tue 03:43:00 AM -7.4045 -62.4823 138° Southeast  Level FlightAware Approximate
Tue 03:44:00 AM -7.5016 -62.3939 138° Southeast  Level FlightAware Approximate
Tue 03:45:00 AM -7.5986 -62.3055 138° Southeast  Level FlightAware Approximate
Tue 03:46:00 AM -7.6956 -62.2170 138° Southeast  Level FlightAware Approximate
Tue 03:47:00 AM -7.7926 -62.1285 138° Southeast  Level FlightAware Approximate
Tue 03:48:00 AM -7.8896 -62.0399 138° Southeast  Level FlightAware Approximate
Tue 03:49:00 AM -7.9865 -61.9513 138° Southeast  Level FlightAware Approximate
Tue 03:50:00 AM -8.0835 -61.8627 138° Southeast  Level FlightAware Approximate
Tue 03:51:00 AM -8.1804 -61.7740 138° Southeast  Level FlightAware Approximate
Tue 03:52:00 AM -8.2773 -61.6852 138° Southeast  Level FlightAware Approximate
Tue 03:53:00 AM -8.3742 -61.5965 138° Southeast  Level FlightAware Approximate
Tue 03:54:00 AM -8.4711 -61.5076 138° Southeast  Level FlightAware Approximate
Tue 03:55:00 AM -8.5680 -61.4188 138° Southeast  Level FlightAware Approximate
Tue 03:56:00 AM -8.6648 -61.3299 138° Southeast  Level FlightAware Approximate
Tue 03:57:00 AM -8.7616 -61.2409 138° Southeast  Level FlightAware Approximate
Tue 03:58:00 AM -8.8584 -61.1519 138° Southeast  Level FlightAware Approximate
Tue 03:59:00 AM -8.9551 -61.0629 138° Southeast  Level FlightAware Approximate
Tue 04:00:00 AM -9.0519 -60.9738 138° Southeast  Level FlightAware Approximate
Tue 04:01:00 AM -9.1486 -60.8846 138° Southeast  Level FlightAware Approximate
Tue 04:02:00 AM -9.2453 -60.7954 138° Southeast  Level FlightAware Approximate
Tue 04:03:00 AM -9.3420 -60.7062 138° Southeast  Level FlightAware Approximate
Tue 04:04:00 AM -9.4387 -60.6169 138° Southeast  Level FlightAware Approximate
Tue 04:05:00 AM -9.5353 -60.5276 138° Southeast  Level FlightAware Approximate
Tue 04:06:00 AM -9.6319 -60.4382 138° Southeast  Level FlightAware Approximate
Tue 04:07:00 AM -9.7285 -60.3487 138° Southeast  Level FlightAware Approximate
Tue 04:08:00 AM -9.8250 -60.2593 138° Southeast  Level FlightAware Approximate
Tue 04:09:00 AM -9.9216 -60.1697 138° Southeast  Level FlightAware Approximate
Tue 04:10:00 AM -10.0181 -60.0801 138° Southeast  Level FlightAware Approximate
Tue 04:11:00 AM -10.1146 -59.9905 138° Southeast  Level FlightAware Approximate
Tue 04:12:00 AM -10.2111 -59.9007 138° Southeast  Level FlightAware Approximate
Tue 04:13:00 AM -10.3075 -59.8110 138° Southeast  Level FlightAware Approximate
Tue 04:14:00 AM -10.4039 -59.7212 138° Southeast  Level FlightAware Approximate
Tue 04:15:00 AM -10.5003 -59.6313 137° Southeast  Level FlightAware Approximate
Tue 04:16:00 AM -10.5967 -59.5414 137° Southeast  Level FlightAware Approximate
Tue 04:17:00 AM -10.6930 -59.4514 137° Southeast  Level FlightAware Approximate
Tue 04:18:00 AM -10.7893 -59.3613 137° Southeast  Level FlightAware Approximate
Tue 04:19:00 AM -10.8856 -59.2712 137° Southeast  Level FlightAware Approximate
Tue 04:20:00 AM -10.9819 -59.1811 137° Southeast  Level FlightAware Approximate
Tue 04:21:00 AM -11.0781 -59.0909 137° Southeast  Level FlightAware Approximate
Tue 04:22:00 AM -11.1743 -59.0006 137° Southeast  Level FlightAware Approximate
Tue 04:23:00 AM -11.2705 -58.9102 137° Southeast  Level FlightAware Approximate
Tue 04:24:00 AM -11.3667 -58.8198 137° Southeast  Level FlightAware Approximate
Tue 04:25:00 AM -11.4628 -58.7294 137° Southeast  Level FlightAware Approximate
Tue 04:26:00 AM -11.5589 -58.6389 137° Southeast  Level FlightAware Approximate
Tue 04:27:00 AM -11.6550 -58.5483 137° Southeast  Level FlightAware Approximate
Tue 04:28:00 AM -11.7510 -58.4576 137° Southeast  Level FlightAware Approximate
Tue 04:29:00 AM -11.8471 -58.3669 137° Southeast  Level FlightAware Approximate
Tue 04:30:00 AM -11.9431 -58.2762 137° Southeast  Level FlightAware Approximate
Tue 04:31:00 AM -12.0390 -58.1853 137° Southeast  Level FlightAware Approximate
Tue 04:32:00 AM -12.1349 -58.0944 137° Southeast  Level FlightAware Approximate
Tue 04:33:00 AM -12.2309 -58.0035 137° Southeast  Level FlightAware Approximate
Tue 04:34:00 AM -12.3267 -57.9124 137° Southeast  Level FlightAware Approximate
Tue 04:35:00 AM -12.4226 -57.8213 137° Southeast  Level FlightAware Approximate
Tue 04:36:00 AM -12.5184 -57.7302 137° Southeast  Level FlightAware Approximate
Tue 04:37:00 AM -12.6142 -57.6390 137° Southeast  Level FlightAware Approximate
Tue 04:38:00 AM -12.7099 -57.5476 137° Southeast  Level FlightAware Approximate
Tue 04:39:00 AM -12.8056 -57.4563 137° Southeast  Level FlightAware Approximate
Tue 04:40:00 AM -12.9013 -57.3648 137° Southeast  Level FlightAware Approximate
Tue 04:41:00 AM -12.9970 -57.2733 137° Southeast  Level FlightAware Approximate
Tue 04:42:00 AM -13.0926 -57.1818 137° Southeast  Level FlightAware Approximate
Tue 04:43:00 AM -13.1882 -57.0901 137° Southeast  Level FlightAware Approximate
Tue 04:44:00 AM -13.2837 -56.9984 137° Southeast  Level FlightAware Approximate
Tue 04:45:00 AM -13.3792 -56.9066 137° Southeast  Level FlightAware Approximate
Tue 04:46:00 AM -13.4747 -56.8147 137° Southeast  Level FlightAware Approximate
Tue 04:47:00 AM -13.5702 -56.7228 137° Southeast  Level FlightAware Approximate
Tue 04:48:00 AM -13.6656 -56.6308 137° Southeast  Level FlightAware Approximate
Tue 04:49:00 AM -13.7610 -56.5387 137° Southeast  Level FlightAware Approximate
Tue 04:50:00 AM -13.8564 -56.4465 137° Southeast  Level FlightAware Approximate
Tue 04:51:00 AM -13.9517 -56.3543 137° Southeast  Level FlightAware Approximate
Tue 04:52:00 AM -14.0470 -56.2620 137° Southeast  Level FlightAware Approximate
Tue 04:53:00 AM -14.1422 -56.1696 137° Southeast  Level FlightAware Approximate
Tue 04:54:00 AM -14.2374 -56.0771 137° Southeast  Level FlightAware Approximate
Tue 04:55:00 AM -14.3326 -55.9846 137° Southeast  Level FlightAware Approximate
Tue 04:56:00 AM -14.4278 -55.8919 137° Southeast  Level FlightAware Approximate
Tue 04:57:00 AM -14.5229 -55.7992 137° Southeast  Level FlightAware Approximate
Tue 04:58:00 AM -14.6180 -55.7064 137° Southeast  Level FlightAware Approximate
Tue 04:59:00 AM -14.7130 -55.6135 137° Southeast  Level FlightAware Approximate
Tue 05:00:00 AM -14.8080 -55.5206 137° Southeast  Level FlightAware Approximate
Tue 05:01:00 AM -14.9030 -55.4276 137° Southeast  Level FlightAware Approximate
Tue 05:02:00 AM -14.9979 -55.3345 137° Southeast  Level FlightAware Approximate
Tue 05:03:00 AM -15.0928 -55.2413 137° Southeast  Level FlightAware Approximate
Tue 05:04:00 AM -15.1876 -55.1480 137° Southeast  Level FlightAware Approximate
Tue 05:05:00 AM -15.2824 -55.0546 136° Southeast  Level FlightAware Approximate
Tue 05:06:00 AM -15.3772 -54.9612 136° Southeast  Level FlightAware Approximate
Tue 05:07:00 AM -15.4722 -54.8673 136° Southeast  Level FlightAware Approximate
Tue 05:08:00 AM -15.5673 -54.7734 136° Southeast  Level FlightAware Approximate
Tue 05:09:00 AM -15.6623 -54.6793 136° Southeast  Level FlightAware Approximate
Tue 05:10:00 AM -15.7572 -54.5852 136° Southeast  Level FlightAware Approximate
Tue 05:11:00 AM -15.8521 -54.4910 136° Southeast  Level FlightAware Approximate
Tue 05:12:00 AM -15.9470 -54.3967 136° Southeast  Level FlightAware Approximate
Tue 05:13:00 AM -16.0418 -54.3023 136° Southeast  Level FlightAware Approximate
Tue 05:14:00 AM -16.1366 -54.2078 136° Southeast  Level FlightAware Approximate
Tue 05:15:00 AM -16.2313 -54.1133 136° Southeast  Level FlightAware Approximate
Tue 05:16:00 AM -16.3260 -54.0186 136° Southeast  Level FlightAware Approximate
Tue 05:17:00 AM -16.4207 -53.9239 136° Southeast  Level FlightAware Approximate
Tue 05:18:00 AM -16.5153 -53.8290 136° Southeast  Level FlightAware Approximate
Tue 05:19:00 AM -16.6098 -53.7341 136° Southeast  Level FlightAware Approximate
Tue 05:20:00 AM -16.7044 -53.6391 136° Southeast  Level FlightAware Approximate
Tue 05:21:00 AM -16.7989 -53.5439 136° Southeast  Level FlightAware Approximate
Tue 05:22:00 AM -16.8933 -53.4487 136° Southeast  Level FlightAware Approximate
Tue 05:23:00 AM -16.9877 -53.3534 136° Southeast  Level FlightAware Approximate
Tue 05:24:00 AM -17.0821 -53.2580 136° Southeast  Level FlightAware Approximate
Tue 05:25:00 AM -17.1764 -53.1625 136° Southeast  Level FlightAware Approximate
Tue 05:26:00 AM -17.2706 -53.0669 136° Southeast  Level FlightAware Approximate
Tue 05:27:00 AM -17.3648 -52.9712 136° Southeast  Level FlightAware Approximate
Tue 05:28:00 AM -17.4590 -52.8754 136° Southeast  Level FlightAware Approximate
Tue 05:29:00 AM -17.5531 -52.7795 136° Southeast  Level FlightAware Approximate
Tue 05:30:00 AM -17.6472 -52.6835 136° Southeast  Level FlightAware Approximate
Tue 05:31:00 AM -17.7412 -52.5874 136° Southeast  Level FlightAware Approximate
Tue 05:32:00 AM -17.8352 -52.4912 136° Southeast  Level FlightAware Approximate
Tue 05:33:00 AM -17.9292 -52.3949 136° Southeast  Level FlightAware Approximate
Tue 05:33:39 AM -19.0880 -50.5750 136° Southeast 506 582 35,000  Level FlightAware ADS-B
Tue 05:34:00 AM -18.0231 -52.2985 136° Southeast  Level FlightAware Approximate
Tue 05:34:16 AM -19.1460 -50.5110 134° Southeast 506 582 35,000  Level FlightAware ADS-B
Tue 05:34:48 AM -19.1980 -50.4550 135° Southeast 505 581 35,000  Level FlightAware ADS-B
Tue 05:35:25 AM -19.2590 -50.3870 134° Southeast 505 581 35,000  Level FlightAware ADS-B
Tue 05:36:00 AM -19.3150 -50.3260 134° Southeast 504 580 35,000  Level FlightAware ADS-B
Tue 05:36:33 AM -19.3700 -50.2650 134° Southeast 504 580 35,000  Level FlightAware ADS-B
Tue 05:37:09 AM -19.4280 -50.2020 134° Southeast 502 578 35,000  Level FlightAware ADS-B
Tue 05:37:49 AM -19.4900 -50.1340 134° Southeast 502 578 35,000  Level FlightAware ADS-B
Tue 05:38:27 AM -19.5550 -50.0620 134° Southeast 503 579 35,000  Level FlightAware ADS-B
Tue 05:38:58 AM -19.6020 -50.0110 134° Southeast 504 580 35,000  Level FlightAware ADS-B
Tue 05:39:35 AM -19.6640 -49.9430 134° Southeast 502 578 35,000  Level FlightAware ADS-B
Tue 05:40:13 AM -19.7260 -49.8750 134° Southeast 500 575 35,000  Level FlightAware ADS-B
Tue 05:40:45 AM -19.7760 -49.8200 134° Southeast 500 575 35,000  Level FlightAware ADS-B
Tue 05:41:25 AM -19.8390 -49.7510 134° Southeast 500 575 35,000  Level FlightAware ADS-B
Tue 05:41:59 AM -19.8940 -49.6910 134° Southeast 500 575 35,000  Level FlightAware ADS-B
Tue 05:42:37 AM -19.9560 -49.6230 134° Southeast 500 575 35,000  Level FlightAware ADS-B
Tue 05:43:13 AM -20.0140 -49.5600 134° Southeast 500 575 35,000  Level FlightAware ADS-B
Tue 05:43:50 AM -20.0730 -49.4950 134° Southeast 499 574 35,000  Level FlightAware ADS-B
Tue 05:44:19 AM -20.1200 -49.4430 134° Southeast 500 575 35,000  Level FlightAware ADS-B
Tue 05:44:57 AM -20.1830 -49.3730 134° Southeast 500 575 35,000  Level FlightAware ADS-B
Tue 05:45:31 AM -20.2370 -49.3140 134° Southeast 498 573 35,000  Level FlightAware ADS-B
Tue 05:46:07 AM -20.2960 -49.2490 134° Southeast 497 572 35,000  Level FlightAware ADS-B
Tue 05:46:45 AM -20.3540 -49.1850 134° Southeast 497 572 35,000  Level FlightAware ADS-B
Tue 05:47:16 AM -20.4050 -49.1290 134° Southeast 498 573 35,000  Level FlightAware ADS-B
Tue 05:47:52 AM -20.4630 -49.0640 134° Southeast 497 572 35,000  Level FlightAware ADS-B
Tue 05:48:28 AM -20.5200 -49.0010 134° Southeast 496 571 35,000  Level FlightAware ADS-B
Tue 05:49:02 AM -20.5740 -48.9410 134° Southeast 496 571 35,000  Level FlightAware ADS-B
Tue 05:49:38 AM -20.6310 -48.8770 134° Southeast 495 570 35,000  Level FlightAware ADS-B
Tue 05:50:14 AM -20.6880 -48.8140 134° Southeast 493 567 35,000  Level FlightAware ADS-B
Tue 05:50:46 AM -20.7390 -48.7570 134° Southeast 492 566 35,000  Level FlightAware ADS-B
Tue 05:51:30 AM -20.8080 -48.6790 133° Southeast 490 564 35,000  Level FlightAware ADS-B
Tue 05:52:04 AM -20.8590 -48.6220 134° Southeast 489 563 35,000  Level FlightAware ADS-B
Tue 05:52:38 AM -20.9150 -48.5600 134° Southeast 488 562 35,000  Level FlightAware ADS-B
Tue 05:53:16 AM -20.9740 -48.4930 133° Southeast 488 562 35,000  Level FlightAware ADS-B
Tue 05:53:52 AM -21.0300 -48.4300 134° Southeast 487 560 35,000  Level FlightAware ADS-B
Tue 05:54:28 AM -21.0850 -48.3680 134° Southeast 487 560 35,000  Level FlightAware ADS-B
Tue 05:55:00 AM -21.1350 -48.3120 134° Southeast 486 559 35,000  Level FlightAware ADS-B
Tue 05:55:35 AM -21.1880 -48.2520 133° Southeast 486 559 35,000  Level FlightAware ADS-B
Tue 05:56:12 AM -21.2460 -48.1860 133° Southeast 486 559 35,000  Level FlightAware ADS-B
Tue 05:56:46 AM -21.2990 -48.1260 133° Southeast 486 559 35,000  Level FlightAware ADS-B
Tue 05:57:22 AM -21.3540 -48.0640 134° Southeast 486 559 35,000  Level FlightAware ADS-B
Tue 05:57:54 AM -21.4040 -48.0070 133° Southeast 486 559 35,000  Level FlightAware ADS-B
Tue 05:58:30 AM -21.4600 -47.9430 133° Southeast 486 559 35,000  Level FlightAware ADS-B
Tue 05:59:07 AM -21.5160 -47.8810 134° Southeast 486 559 35,000  Level FlightAware ADS-B
Tue 05:59:38 AM -21.5650 -47.8250 133° Southeast 487 560 35,000  Level FlightAware ADS-B
Tue 06:00:16 AM -21.6240 -47.7570 133° Southeast 487 560 35,000  Level FlightAware ADS-B
Tue 06:00:52 AM -21.6800 -47.6940 134° Southeast 487 560 35,000  Level FlightAware ADS-B
Tue 06:01:28 AM -21.7350 -47.6310 133° Southeast 486 559 35,000 -176 Level FlightAware ADS-B
Tue 06:02:00 AM -21.7850 -47.5740 133° Southeast 484 557 34,800 -882 Descending FlightAware ADS-B
Tue 06:02:36 AM -21.8390 -47.5120 133° Southeast 483 556 34,000 -1,167 Descending FlightAware ADS-B
Tue 06:03:12 AM -21.8950 -47.4480 133° Southeast 476 548 33,400 -1,352 Descending FlightAware ADS-B
Tue 06:03:47 AM -21.9450 -47.3900 133° Southeast 465 535 32,400 -1,886 Descending FlightAware ADS-B
Tue 06:04:22 AM -22.0040 -47.3400 142° Southeast 441 507 31,200 -2,060 Descending FlightAware ADS-B
Tue 06:04:54 AM -22.0630 -47.3120 156° South 428 493 30,100 -2,029 Descending FlightAware ADS-B
Tue 06:05:30 AM -22.1280 -47.2850 159° South 419 482 28,900 -1,946 Descending FlightAware ADS-B
Tue 06:06:08 AM -22.1960 -47.2570 159° South 409 471 27,700 -1,971 Descending FlightAware ADS-B
Tue 06:06:40 AM -22.2520 -47.2340 159° South 401 461 26,600 -1,941 Descending FlightAware ADS-B
Tue 06:07:16 AM -22.3150 -47.2080 159° South 393 452 25,500 -1,886 Descending FlightAware ADS-B
Tue 06:07:50 AM -22.3730 -47.1840 159° South 385 443 24,400 -1,833 Descending FlightAware ADS-B
Tue 06:08:28 AM -22.4340 -47.1580 158° South 378 435 23,300 -1,739 Descending FlightAware ADS-B
Tue 06:08:59 AM -22.4840 -47.1370 159° South 372 428 22,400 -1,765 Descending FlightAware ADS-B
Tue 06:09:36 AM -22.5440 -47.1120 159° South 364 419 21,300 -1,808 Descending FlightAware ADS-B
Tue 06:10:12 AM -22.5980 -47.0880 158° South 358 412 20,200 -1,690 Descending FlightAware ADS-B
Tue 06:10:47 AM -22.6490 -47.0670 159° South 352 405 19,300 -1,644 Descending FlightAware ADS-B
Tue 06:11:25 AM -22.7060 -47.0440 160° South 347 399 18,200 -1,760 Descending FlightAware ADS-B
Tue 06:12:02 AM -22.7630 -47.0200 159° South 343 395 17,100 -1,725 Descending FlightAware ADS-B
Tue 06:12:45 AM -22.8270 -46.9930 159° South 335 386 15,900 -1,671 Descending FlightAware ADS-B
Tue 06:13:21 AM -22.8800 -46.9710 159° South 331 381 14,900 -1,667 Descending FlightAware ADS-B
Tue 06:13:57 AM -22.9320 -46.9490 159° South 329 379 13,900 -1,676 Descending FlightAware ADS-B
Tue 06:14:29 AM -22.9780 -46.9300 159° South 325 374 13,000 -1,588 Descending FlightAware ADS-B
Tue 06:15:05 AM -23.0270 -46.9090 158° South 305 351 12,100 -1,500 Descending FlightAware ADS-B
Tue 06:15:41 AM -23.0730 -46.8900 159° South 299 344 11,200 -1,500 Descending FlightAware ADS-B
Tue 06:16:17 AM -23.1200 -46.8700 159° South 300 345 10,300 -1,309 Descending FlightAware ADS-B
Tue 06:16:36 AM -23.1430 -46.8600 158° South 294 338 10,000 -968 Descending FlightAware ADS-B
Tue 06:16:48 AM -23.1580 -46.8530 157° South 289 333 9,800 -1,000 Descending FlightAware ADS-B
Tue 06:17:12 AM -23.1890 -46.8410 160° South 275 316 9,400 -818 Descending FlightAware ADS-B
Tue 06:17:32 AM -23.2110 -46.8310 157° South 269 310 9,200 -750 Descending FlightAware ADS-B
Tue 06:17:44 AM -23.2260 -46.8250 160° South 266 306 9,000 -1,000 Descending FlightAware ADS-B
Tue 06:18:08 AM -23.2540 -46.8130 159° South 274 315 8,600 -811 Descending FlightAware ADS-B
Tue 06:18:21 AM -23.2680 -46.8070 159° South 265 305 8,500 -750 Descending FlightAware ADS-B
Tue 06:18:40 AM -23.2890 -46.7980 159° South 246 283 8,200 -1,463 Descending FlightAware ADS-B
Tue 06:19:02 AM -23.3120 -46.7870 156° South 235 270 7,500 -1,857 Descending FlightAware ADS-B
Tue 06:19:22 AM -23.3310 -46.7760 152° Southeast 233 268 6,900 -1,650 Descending FlightAware ADS-B
Tue 06:19:42 AM -23.3480 -46.7630 145° Southeast 222 255 6,400 -1,579 Descending FlightAware ADS-B
Tue 06:20:00 AM -23.3630 -46.7530 149° Southeast 218 251 5,900 -1,227 Descending FlightAware ADS-B
Tue 06:20:26 AM -23.3850 -46.7370 146° Southeast 219 252 5,500 -600 Descending FlightAware ADS-B
Tue 06:20:40 AM -23.3980 -46.7280 148° Southeast 217 250 5,500 -333 Level FlightAware ADS-B
Tue 06:21:02 AM -23.4160 -46.7150 146° Southeast 213 245 5,300 -882 Descending FlightAware ADS-B
Tue 06:21:14 AM -23.4260 -46.7080 147° Southeast 214 246 5,000 -1,000 Descending FlightAware ADS-B
Tue 06:21:38 AM -23.4450 -46.6930 144° Southeast 205 236 4,700 -667 Descending FlightAware ADS-B
Tue 06:21:50 AM -23.4520 -46.6830 127° Southeast 195 224 4,600 -600 Descending FlightAware ADS-B
Tue 06:21:58 AM -23.4550 -46.6770 119° Southeast 190 219 4,500 -600 Descending FlightAware ADS-B
Tue 06:22:10 AM -23.4590 -46.6660 112° Southeast 188 216 4,400 -176 Descending FlightAware ADS-B
Tue 06:22:32 AM -23.4670 -46.6470 115° Southeast 183 211 4,400  Level FlightAware ADS-B
Tue 06:22:56 AM -23.4740 -46.6270 111° Southeast 183 211 4,400  Level FlightAware ADS-B
Tue 06:23:00 AM -23.4750 -46.6240 110° East 183 211 4,400 -214 Level FlightAware ADS-B
Tue 06:23:24 AM -23.4700 -46.6030 75° East 177 204 4,300 -545 Descending FlightAware ADS-B
Tue 06:23:44 AM -23.4660 -46.5860 76° East 163 188 4,000 -1,000 Descending FlightAware ADS-B
Tue 06:23:54 AM -23.4640 -46.5790 73° East 158 182 3,800 -1,000 Descending FlightAware ADS-B
Tue 06:24:20 AM -23.4580 -46.5590 72° East 145 167 3,400 -783 Descending FlightAware ADS-B
Tue 06:24:40 AM -23.4550 -46.5460 76° East 144 166 3,200 -600 Descending FlightAware ADS-B
Tue 06:25:00 AM -23.4510 -46.5320 73° East 152 175 3,000 -706 Descending FlightAware ADS-B
Tue 06:25:14 AM -23.4480 -46.5210 73° East 150 173 2,800 -857 Descending FlightAware ADS-B
Tue 06:25:49 AM -23.4420 -46.4980 74° East 148 170 2,300 -778 Descending FlightAware ADS-B
Tue 06:26:08 AM -23.4380 -46.4850 71° East 149 171 2,100 -632 Descending FlightAware ADS-B
Tue 06:26:23 AM -23.4350 -46.4750 72° East 120 138 -8,400 Descending FlightAware ADS-B
Tue 06:27:00 AM -23.4310 -46.4600 74° East 80 92  Level FlightAware ADS-B

Login

Don't have an account? Register now (free) for customized features, flight alerts, and more!